createdAt,value
2018-01-03T15:22:56.654Z,6.2
2018-01-03T15:24:00.040Z,5.9
2018-01-03T15:25:03.512Z,5.3
2018-01-03T15:26:07.039Z,4.9
2018-01-03T15:27:10.639Z,4.5
2018-01-03T15:28:14.125Z,4.4
2018-01-03T15:29:17.619Z,4.2
2018-01-03T15:30:23.445Z,4.1
2018-01-03T15:31:35.786Z,3.9
2018-01-03T15:32:40.071Z,3.8
2018-01-03T15:33:47.617Z,3.7
2018-01-03T15:34:52.483Z,3.7
2018-01-03T15:35:56.594Z,3.8
2018-01-03T15:37:01.273Z,3.8
2018-01-03T15:38:04.760Z,3.7
2018-01-03T15:39:08.175Z,3.7
2018-01-03T15:40:12.200Z,3.7
2018-01-03T15:41:16.408Z,3.7
2018-01-03T15:42:20.389Z,3.7
2018-01-03T15:43:23.884Z,3.7
2018-01-03T15:44:30.920Z,3.7
2018-01-03T15:45:34.386Z,3.7
2018-01-03T15:46:37.809Z,3.7
2018-01-03T15:47:41.336Z,3.6
2018-01-03T15:48:44.812Z,3.7
2018-01-03T15:49:49.362Z,3.7
2018-01-03T15:50:52.828Z,3.7
2018-01-03T15:51:56.207Z,3.6
2018-01-03T15:52:59.631Z,3.7
2018-01-03T15:54:02.996Z,3.6
2018-01-03T15:55:09.915Z,3.5
2018-01-03T15:56:13.408Z,3.6
2018-01-03T15:57:16.800Z,3.6
2018-01-03T15:58:20.244Z,3.6
2018-01-03T15:59:23.549Z,3.6
2018-01-03T16:00:26.924Z,3.6
2018-01-03T16:01:30.272Z,3.6
2018-01-03T16:02:33.797Z,3.6
2018-01-03T16:03:37.151Z,3.6
2018-01-03T16:04:40.400Z,3.6
2018-01-03T16:05:47.294Z,3.6
2018-01-03T16:06:50.665Z,3.6
2018-01-03T16:07:54.082Z,3.5
2018-01-03T16:08:57.483Z,3.5
2018-01-03T16:10:00.879Z,3.6
2018-01-03T16:11:04.283Z,3.4
2018-01-03T16:12:07.821Z,3.5
2018-01-03T16:13:11.243Z,3.5
2018-01-03T16:14:15.479Z,3.5
2018-01-03T16:15:19.624Z,3.5
2018-01-03T16:16:26.746Z,3.5
2018-01-03T16:17:30.309Z,3.5
2018-01-03T16:18:33.873Z,3.5
2018-01-03T16:19:37.228Z,3.4
2018-01-03T16:20:40.435Z,3.5
2018-01-03T16:21:43.772Z,3.5
2018-01-03T16:22:47.191Z,3.4
2018-01-03T16:23:50.702Z,3.5
2018-01-03T16:24:54.217Z,3.5
2018-01-03T16:26:05.082Z,3.4
2018-01-03T16:27:42.458Z,3.4
2018-01-03T16:29:00.653Z,3.4
2018-01-03T16:30:19.930Z,3.4
2018-01-03T16:31:39.083Z,3.4
2018-01-03T16:32:57.270Z,3.4
2018-01-03T16:34:13.147Z,3.4
2018-01-03T16:35:25.885Z,3.4
2018-01-03T16:36:32.698Z,3.5
2018-01-03T16:37:36.099Z,3.5
2018-01-03T16:38:39.283Z,3.5
2018-01-03T16:39:46.424Z,3.5
2018-01-03T16:40:49.858Z,3.5
2018-01-03T16:41:53.340Z,3.4
2018-01-03T16:42:57.567Z,3.5
2018-01-03T16:44:01.512Z,3.4
2018-01-03T16:45:04.902Z,3.5
2018-01-03T16:46:08.421Z,3.5
2018-01-03T16:47:11.867Z,3.5
2018-01-03T16:48:15.323Z,3.5
2018-01-03T16:49:18.688Z,3.5
2018-01-03T16:50:25.605Z,3.5
2018-01-03T16:51:29.034Z,3.5
2018-01-03T16:52:32.363Z,3.5
2018-01-03T16:53:38.927Z,3.5
2018-01-03T16:54:42.333Z,3.5
2018-01-03T16:55:45.888Z,3.5
2018-01-03T16:56:49.308Z,3.5
2018-01-03T16:57:52.918Z,3.5
2018-01-03T16:58:56.233Z,3.6
2018-01-03T16:59:59.684Z,3.6
2018-01-03T17:01:06.541Z,3.6
2018-01-03T17:02:10.102Z,3.6
2018-01-03T17:03:13.589Z,3.5
2018-01-03T17:04:17.712Z,3.5
2018-01-03T17:05:21.364Z,3.6
2018-01-03T17:06:24.862Z,3.6
2018-01-03T17:07:28.402Z,3.6
2018-01-03T17:08:31.792Z,3.6
2018-01-03T17:09:35.146Z,3.5
2018-01-03T17:10:38.622Z,3.5
2018-01-03T17:11:45.606Z,3.5
2018-01-03T17:12:49.121Z,3.5
2018-01-03T17:13:52.696Z,3.5
2018-01-03T17:14:56.134Z,3.5
2018-01-03T17:15:59.558Z,3.6
2018-01-03T17:17:03.075Z,3.6
2018-01-03T17:18:06.552Z,3.6
2018-01-03T17:19:10.110Z,3.6
2018-01-03T17:20:13.773Z,3.6
2018-01-03T17:21:17.285Z,3.6
2018-01-03T17:22:24.260Z,3.6
2018-01-03T17:23:27.722Z,3.7
2018-01-03T17:24:31.670Z,3.6
2018-01-03T17:25:35.207Z,3.7
2018-01-03T17:26:38.744Z,3.7
2018-01-03T17:27:42.672Z,3.6
2018-01-03T17:28:48.217Z,3.7
2018-01-03T17:29:52.256Z,3.7
2018-01-03T17:30:55.767Z,3.7
2018-01-03T17:31:59.291Z,3.8
2018-01-03T17:33:06.356Z,3.8
2018-01-03T17:34:09.958Z,3.7
2018-01-03T17:35:13.356Z,3.8
2018-01-03T17:36:16.863Z,3.8
2018-01-03T17:37:20.281Z,3.7
2018-01-03T17:38:23.674Z,3.7
2018-01-03T17:39:27.180Z,3.7
2018-01-03T17:40:30.639Z,3.8
2018-01-03T17:41:34.805Z,3.8
2018-01-03T17:42:38.255Z,3.8
2018-01-03T17:43:45.476Z,3.8
2018-01-03T17:44:48.859Z,3.8
2018-01-03T17:45:53.120Z,3.8
2018-01-03T17:46:56.573Z,3.8
2018-01-03T17:47:59.956Z,3.8
2018-01-03T17:49:03.584Z,3.8
2018-01-03T17:50:07.055Z,3.8
2018-01-03T17:51:10.558Z,3.8
2018-01-03T17:52:14.018Z,3.8
2018-01-03T17:53:17.475Z,3.8
2018-01-03T17:54:24.194Z,3.8
2018-01-03T17:55:27.729Z,3.8
2018-01-03T17:56:31.142Z,3.8
2018-01-03T17:57:34.542Z,3.8
2018-01-03T17:58:37.878Z,3.8
2018-01-03T17:59:41.345Z,3.8
2018-01-03T18:00:44.874Z,3.8
2018-01-03T18:01:48.388Z,3.8
2018-01-03T18:02:52.003Z,3.8
2018-01-03T18:03:56.235Z,3.9
2018-01-03T18:05:03.157Z,3.9
2018-01-03T18:06:07.150Z,3.8
2018-01-03T18:07:10.533Z,3.8
2018-01-03T18:08:13.911Z,3.8
2018-01-03T18:09:18.306Z,3.8
2018-01-03T18:10:22.292Z,3.9
2018-01-03T18:11:25.776Z,3.9
2018-01-03T18:12:29.223Z,3.9
2018-01-03T18:13:32.472Z,3.9
2018-01-03T18:14:35.982Z,3.9
2018-01-03T18:15:43.010Z,3.9
2018-01-03T18:16:46.527Z,3.8
2018-01-03T18:17:50.074Z,3.8
2018-01-03T18:18:53.670Z,3.8
2018-01-03T18:19:57.107Z,3.9
2018-01-03T18:21:01.663Z,3.9
2018-01-03T18:22:05.178Z,3.8
2018-01-03T18:23:09.508Z,3.9
2018-01-03T18:24:14.666Z,3.8
2018-01-03T18:25:18.193Z,3.9
2018-01-03T18:26:25.330Z,3.8
2018-01-03T18:27:28.832Z,3.8
2018-01-03T18:28:32.329Z,3.9
2018-01-03T18:29:35.825Z,3.8
2018-01-03T18:30:39.346Z,3.8
2018-01-03T18:31:42.878Z,3.8
2018-01-03T18:32:46.285Z,3.8
2018-01-03T18:33:49.709Z,3.8
2018-01-03T18:34:53.076Z,3.9
2018-01-03T18:35:56.411Z,3.8
2018-01-03T18:37:03.676Z,3.8
2018-01-03T18:38:07.122Z,3.8
2018-01-03T18:39:10.600Z,3.8
2018-01-03T18:40:14.153Z,3.8
2018-01-03T18:41:17.823Z,3.8
2018-01-03T18:42:21.287Z,3.8
2018-01-03T18:43:24.751Z,3.9
2018-01-03T18:44:28.168Z,3.8
2018-01-03T18:45:31.443Z,3.8
2018-01-03T18:46:35.011Z,3.8
2018-01-03T18:47:43.495Z,3.8
2018-01-03T18:48:46.986Z,3.7
2018-01-03T18:49:50.470Z,3.8
2018-01-03T18:50:54.815Z,3.7
2018-01-03T18:51:58.216Z,3.7
2018-01-03T18:53:01.588Z,3.7
2018-01-03T18:54:05.143Z,3.7
2018-01-03T18:55:08.532Z,3.8
2018-01-03T18:56:11.859Z,3.8
2018-01-03T18:57:15.304Z,3.8
2018-01-03T18:58:32.709Z,3.8
2018-01-03T18:59:37.306Z,3.7
2018-01-03T19:00:40.774Z,3.7
2018-01-03T19:01:44.270Z,3.8
2018-01-03T19:02:48.945Z,3.7
2018-01-03T19:03:52.338Z,3.7
2018-01-03T19:04:55.884Z,3.8
2018-01-03T19:06:05.233Z,3.7
2018-01-03T19:07:09.748Z,3.8
2018-01-03T19:08:13.054Z,3.8
2018-01-03T19:09:20.087Z,3.8
2018-01-03T19:10:23.605Z,3.7
2018-01-03T19:11:26.974Z,3.8
2018-01-03T19:12:31.959Z,3.7
2018-01-03T19:13:35.296Z,3.8
2018-01-03T19:14:38.621Z,3.8
2018-01-03T19:15:43.002Z,3.7
2018-01-03T19:16:47.032Z,3.7
2018-01-03T19:17:50.503Z,3.7
2018-01-03T19:18:54.496Z,3.7
2018-01-03T19:20:02.299Z,3.7
2018-01-03T19:21:05.763Z,3.6
2018-01-03T19:22:09.242Z,3.6
2018-01-03T19:23:13.383Z,3.7
2018-01-03T19:24:16.940Z,3.6
2018-01-03T19:25:20.482Z,3.6
2018-01-03T19:26:25.456Z,3.5
2018-01-03T19:27:28.891Z,3.6
2018-01-03T19:28:32.436Z,3.5
2018-01-03T19:29:36.329Z,3.5
2018-01-03T19:30:43.319Z,3.6
2018-01-03T19:31:47.408Z,3.6
2018-01-03T19:32:50.764Z,3.5
2018-01-03T19:33:54.428Z,3.5
2018-01-03T19:34:57.963Z,3.5
2018-01-03T19:36:01.500Z,3.5
2018-01-03T19:37:05.665Z,3.5
2018-01-03T19:38:09.858Z,3.4
2018-01-03T19:39:13.414Z,3.4
2018-01-03T19:40:16.770Z,3.3
2018-01-03T19:41:24.236Z,3.4
2018-01-03T19:42:28.928Z,3.3
2018-01-03T19:43:33.070Z,3.3
2018-01-03T19:44:36.522Z,3.3
2018-01-03T19:45:41.574Z,3.3
2018-01-03T19:46:45.119Z,3.3
2018-01-03T19:47:49.726Z,3.3
2018-01-03T19:48:52.910Z,3.3
2018-01-03T19:49:56.379Z,3.3
2018-01-03T19:50:59.831Z,3.2
2018-01-03T19:52:07.671Z,3.2
2018-01-03T19:53:11.655Z,3.2
2018-01-03T19:54:16.020Z,3.2
2018-01-03T19:55:20.183Z,3.2
2018-01-03T19:56:24.482Z,3.2
2018-01-03T19:57:27.786Z,3.3
2018-01-03T19:58:31.324Z,3.3
2018-01-03T19:59:36.344Z,3.4
2018-01-03T20:00:39.784Z,3.4
2018-01-03T20:01:43.494Z,3.3
2018-01-03T20:02:51.168Z,3.3
2018-01-03T20:03:55.901Z,3.3
2018-01-03T20:04:59.519Z,3.4
2018-01-03T20:06:02.990Z,3.3
2018-01-03T20:07:06.629Z,3.3
2018-01-03T20:08:10.524Z,3.4
2018-01-03T20:09:14.060Z,3.4
2018-01-03T20:10:17.398Z,3.4
2018-01-03T20:11:20.823Z,3.4
2018-01-03T20:12:24.098Z,3.4
2018-01-03T20:13:31.436Z,3.4
2018-01-03T20:14:35.483Z,3.4
2018-01-03T20:15:39.496Z,3.4
2018-01-03T20:16:43.810Z,3.4
2018-01-03T20:17:47.900Z,3.3
2018-01-03T20:18:51.457Z,3.3
2018-01-03T20:19:55.572Z,3.3
2018-01-03T20:20:59.183Z,3.3
2018-01-03T20:22:03.379Z,3.3
2018-01-03T20:23:07.027Z,3.3
2018-01-03T20:24:14.158Z,3.3
2018-01-03T20:25:17.753Z,3.3
2018-01-03T20:26:21.252Z,3.3
2018-01-03T20:27:24.668Z,3.3
2018-01-03T20:28:28.085Z,3.3
2018-01-03T20:29:31.583Z,3.4
2018-01-03T20:30:35.779Z,3.3
2018-01-03T20:31:39.181Z,3.4
2018-01-03T20:32:42.587Z,3.4
2018-01-03T20:33:46.568Z,3.3
2018-01-03T20:34:53.541Z,3.4
2018-01-03T20:35:57.169Z,3.3
2018-01-03T20:37:00.746Z,3.3
2018-01-03T20:38:04.377Z,3.3
2018-01-03T20:39:08.556Z,3.3
2018-01-03T20:40:12.803Z,3.3
2018-01-03T20:41:16.280Z,3.4
2018-01-03T20:42:20.528Z,3.4
2018-01-03T20:43:24.195Z,3.4
2018-01-03T20:44:28.496Z,3.4
2018-01-03T20:45:38.361Z,3.3
2018-01-03T20:46:42.116Z,3.4
2018-01-03T20:47:45.902Z,3.4
2018-01-03T20:48:50.804Z,3.4
2018-01-03T20:49:54.947Z,3.4
2018-01-03T20:50:58.385Z,3.4
2018-01-03T20:52:02.897Z,3.4
2018-01-03T20:53:06.553Z,3.4
2018-01-03T20:54:09.975Z,3.4
2018-01-03T20:55:14.084Z,3.4
2018-01-03T20:56:21.610Z,3.5
2018-01-03T20:57:25.726Z,3.5
2018-01-03T20:58:28.821Z,3.5
2018-01-03T20:59:32.419Z,3.5
2018-01-03T21:00:35.924Z,3.5
2018-01-03T21:01:40.299Z,3.5
2018-01-03T21:02:45.460Z,3.6
2018-01-03T21:03:48.993Z,3.6
2018-01-03T21:04:58.011Z,3.6
2018-01-03T21:06:02.321Z,3.6
2018-01-03T21:07:09.606Z,3.6
2018-01-03T21:08:14.049Z,3.6
2018-01-03T21:09:18.741Z,3.6
2018-01-03T21:10:22.017Z,3.7
2018-01-03T21:11:30.474Z,3.7
2018-01-03T21:12:40.524Z,3.7
2018-01-03T21:13:51.122Z,3.7
2018-01-03T21:14:55.735Z,3.7
2018-01-03T21:15:59.146Z,3.7
2018-01-03T21:17:02.555Z,3.7
2018-01-03T21:18:10.767Z,3.8
2018-01-03T21:19:14.299Z,3.8
2018-01-03T21:20:19.336Z,3.8
2018-01-03T21:21:22.618Z,3.8
2018-01-03T21:22:29.658Z,3.8
2018-01-03T21:24:44.057Z,3.8
2018-01-03T21:25:48.416Z,3.8
2018-01-03T21:26:54.016Z,3.8
2018-01-03T21:27:59.948Z,3.8
2018-01-03T21:29:18.456Z,3.8
2018-01-03T21:30:21.898Z,3.8
2018-01-03T21:31:25.898Z,3.8
2018-01-03T21:32:29.272Z,3.7
2018-01-03T21:33:33.623Z,3.7
2018-01-03T21:34:37.669Z,3.7
2018-01-03T21:35:41.219Z,3.7
2018-01-03T21:36:44.591Z,3.7
2018-01-03T21:37:48.708Z,3.7
2018-01-03T21:38:54.268Z,3.7
2018-01-03T21:40:01.658Z,3.8
2018-01-03T21:41:05.746Z,3.7
2018-01-03T21:42:09.144Z,3.7
2018-01-03T21:43:13.543Z,3.7
2018-01-03T21:44:19.817Z,3.7
2018-01-03T21:45:24.386Z,3.8
2018-01-03T21:46:28.952Z,3.8
2018-01-03T21:47:33.501Z,3.8
2018-01-03T21:48:37.322Z,3.8
2018-01-03T21:49:42.607Z,3.8
2018-01-03T21:50:49.395Z,3.8
2018-01-03T21:51:53.329Z,3.9
2018-01-03T21:52:56.669Z,3.8
2018-01-03T21:54:01.991Z,3.8
2018-01-03T21:55:05.972Z,3.8
2018-01-03T21:56:09.490Z,3.9
2018-01-03T21:57:13.521Z,3.9
2018-01-03T21:58:17.610Z,3.9
2018-01-03T21:59:21.913Z,3.9
2018-01-03T22:00:25.333Z,3.9
2018-01-03T22:01:33.730Z,3.9
2018-01-03T22:02:37.661Z,3.9
2018-01-03T22:03:40.995Z,3.9
2018-01-03T22:04:44.430Z,3.9
2018-01-03T22:05:47.725Z,3.8
2018-01-03T22:06:51.212Z,3.8
2018-01-03T22:07:54.574Z,3.7
2018-01-03T22:08:58.117Z,3.6
2018-01-03T22:10:01.500Z,3.6
2018-01-03T22:11:04.957Z,3.6
2018-01-03T22:12:12.122Z,3.6
2018-01-03T22:13:15.528Z,3.5
2018-01-03T22:14:19.447Z,3.5
2018-01-03T22:15:23.017Z,3.5
2018-01-03T22:16:26.450Z,3.4
2018-01-03T22:17:29.793Z,3.4
2018-01-03T22:18:33.283Z,3.4
2018-01-03T22:19:36.789Z,3.5
2018-01-03T22:20:40.077Z,3.4
2018-01-03T22:21:43.492Z,3.5
2018-01-03T22:22:50.413Z,3.4
2018-01-03T22:23:53.814Z,3.4
2018-01-03T22:24:57.936Z,3.4
2018-01-03T22:26:01.376Z,3.4
2018-01-03T22:27:04.780Z,3.5
2018-01-03T22:28:08.143Z,3.5
2018-01-03T22:29:12.194Z,3.4
2018-01-03T22:30:15.480Z,3.4
2018-01-03T22:31:18.837Z,3.5
2018-01-03T22:32:22.168Z,3.5
2018-01-03T22:33:28.996Z,3.4
2018-01-03T22:34:32.375Z,3.4
2018-01-03T22:35:35.764Z,3.5
2018-01-03T22:36:38.982Z,3.5
2018-01-03T22:37:42.433Z,3.5
2018-01-03T22:38:45.764Z,3.5
2018-01-03T22:39:50.085Z,3.6
2018-01-03T22:40:54.171Z,3.6
2018-01-03T22:41:57.469Z,3.6
2018-01-03T22:43:00.829Z,3.6
2018-01-03T22:44:08.597Z,3.6
2018-01-03T22:45:12.569Z,3.7
2018-01-03T22:46:15.924Z,3.6
2018-01-03T22:47:19.136Z,3.7
2018-01-03T22:48:22.487Z,3.7
2018-01-03T22:49:25.844Z,3.7
2018-01-03T22:50:29.363Z,3.7
2018-01-03T22:51:32.664Z,3.8
2018-01-03T22:52:36.121Z,3.8
2018-01-03T22:53:39.603Z,3.8
2018-01-03T22:54:46.533Z,3.8
2018-01-03T22:55:49.849Z,3.8
2018-01-03T22:56:53.284Z,3.8
2018-01-03T22:57:57.188Z,3.8
2018-01-03T22:59:00.443Z,3.8
2018-01-03T23:00:03.878Z,3.9
2018-01-03T23:01:07.230Z,3.8
2018-01-03T23:02:10.535Z,3.8
2018-01-03T23:03:14.063Z,3.8
2018-01-03T23:04:17.518Z,3.9
2018-01-03T23:05:24.489Z,3.8
2018-01-03T23:06:27.791Z,3.8
2018-01-03T23:07:31.249Z,3.8
2018-01-03T23:08:34.575Z,3.9
2018-01-03T23:09:37.923Z,3.9
2018-01-03T23:10:41.340Z,3.9
2018-01-03T23:11:44.795Z,3.9
2018-01-03T23:12:48.174Z,3.9
2018-01-03T23:13:51.706Z,3.9
2018-01-03T23:14:55.482Z,3.9
2018-01-03T23:16:03.885Z,3.9
2018-01-03T23:17:07.340Z,3.9
2018-01-03T23:18:10.635Z,3.9
2018-01-03T23:19:13.940Z,4
2018-01-03T23:20:17.270Z,4
2018-01-03T23:21:21.417Z,4
2018-01-03T23:22:24.822Z,4
2018-01-03T23:23:28.153Z,4
2018-01-03T23:24:31.610Z,4
2018-01-03T23:25:35.010Z,4
2018-01-03T23:26:41.804Z,4
2018-01-03T23:27:45.234Z,4
2018-01-03T23:28:48.724Z,4
2018-01-03T23:29:52.546Z,4
2018-01-03T23:30:55.973Z,4
2018-01-03T23:31:59.363Z,4.1
2018-01-03T23:33:02.859Z,4.1
2018-01-03T23:34:07.269Z,4.1
2018-01-03T23:35:10.506Z,4.1
2018-01-03T23:36:13.913Z,4.1
2018-01-03T23:37:21.090Z,4.1
2018-01-03T23:38:24.432Z,4.1
2018-01-03T23:39:27.704Z,4.1
2018-01-03T23:40:31.155Z,4.1
2018-01-03T23:41:34.504Z,4.1
2018-01-03T23:42:37.923Z,4.1
2018-01-03T23:43:41.309Z,4.1
2018-01-03T23:44:44.690Z,4.1
2018-01-03T23:45:48.044Z,4.1
2018-01-03T23:46:51.523Z,4
2018-01-03T23:47:59.257Z,4
2018-01-03T23:49:02.687Z,4
2018-01-03T23:50:06.166Z,4
2018-01-03T23:51:10.135Z,4.1
2018-01-03T23:52:13.529Z,4.1
2018-01-03T23:53:16.972Z,4
2018-01-03T23:54:20.513Z,4
2018-01-03T23:55:23.912Z,4
2018-01-03T23:56:27.329Z,4
2018-01-03T23:57:30.868Z,4
2018-01-03T23:58:37.628Z,3.9
2018-01-03T23:59:40.850Z,4
